Ammo Dump (231) Station Data

Red Flag Warning: No
Fire Weather Zone: 250
SDGE Region: North Coast
Lat/Lon: 33.357/-117.276

Observations

Time Wind Speed/Gust Temp(F) RH Fuel Moist Fuel Temp(F) Dewpt(F) Tmax(F) Tmin(F) Accum Precip 10-min Precip SL Press(mb)
3/29 8:00am 188 2 G 5 58° 49% - - 39° 59° 45.6° - - -
3/29 7:50am 185 1 G 3 56° 54% - - 39° 57.3° 45.6° - - -
3/29 7:40am 177 2 G 4 53° 57% - - 38° 57.3° 45.6° - - -
3/29 7:30am 133 2 G 3 50° 64% - - 38° 57.3° 45.6° - - -
3/29 7:20am 119 2 G 3 50° 62% - - 38° 57.3° 45.6° - - -
3/29 7:10am 143 2 G 4 50° 61% - - 37° 57.3° 45.6° - - -
3/29 7:00am 12 4 G 6 53° 53% - - 37° 57.3° 45.6° - - -
3/29 6:50am 13 3 G 5 49° 65% - - 38° 57.3° 45.6° - - -
3/29 6:40am 72 4 G 5 48° 67% - - 37° 57.3° 45.6° - - -
3/29 6:30am 104 2 G 4 47° 69% - - 38° 57.3° 45.6° - - -
3/29 6:20am 127 2 G 4 46° 72% - - 38° 57.3° 45.6° - - -
3/29 6:10am 156 2 G 6 47° 71% - - 38° 57.3° 45.9° - - -
3/29 6:00am 107 4 G 6 50° 63% - - 37° 57.3° 47.9° - - -
3/29 5:50am 139 2 G 3 52° 59% - - 38° 57.3° 48° - - -
3/29 5:40am 164 3 G 4 51° 62% - - 38° 57.3° 48° - - -
3/29 5:30am 146 3 G 4 50° 62% - - 38° 57.3° 48° - - -
3/29 5:20am 135 2 G 3 50° 63% - - 38° 57.3° 48° - - -
3/29 5:10am 132 3 G 4 50° 64% - - 38° 57.3° 48° - - -
3/29 5:00am 139 2 G 5 50° 65% - - 38° 57.3° 48° - - -
3/29 4:50am 119 3 G 4 51° 63% - - 39° 57.3° 48° - - -
3/29 4:40am 138 2 G 4 51° 64% - - 39° 57.3° 48° - - -
3/29 4:30am 144 2 G 3 51° 65% - - 39° 57.3° 48° - - -
3/29 4:20am 171 2 G 4 52° 64% - - 40° 57.3° 48° - - -
3/29 4:10am 183 2 G 3 50° 67% - - 40° 57.3° 48° - - -
3/29 4:00am 163 1 G 3 50° 67% - - 40° 57.3° 48° - - -
3/29 3:50am 151 2 G 5 51° 64% - - 40° 57.3° 48° - - -
3/29 3:40am 149 3 G 4 53° 62% - - 40° 57.3° 48° - - -
3/29 3:30am 117 3 G 5 52° 62% - - 40° 57.3° 48° - - -
3/29 3:20am 69 3 G 5 55° 56% - - 39° 57.3° 48° - - -
3/29 3:10am 76 6 G 8 55° 55% - - 40° 57.2° 48° - - -
3/29 3:00am 95 3 G 7 53° 63% - - 40° 54.5° 48° - - -
3/29 2:50am 79 6 G 10 54° 60% - - 40° 54.5° 48° - - -
3/29 2:40am 79 9 G 14 53° 61% - - 40° 54.2° 48° - - -
3/29 2:30am 58 7 G 9 52° 62% - - 40° 53.1° 48° - - -
3/29 2:20am 117 3 G 6 52° 62% - - 40° 52.8° 48° - - -
3/29 2:10am 88 3 G 9 51° 64% - - 40° 52.3° 48° - - -
3/29 2:00am 115 3 G 8 49° 70% - - 40° 52.1° 48° - - -
3/29 1:50am 127 2 G 3 50° 68% - - 40° 52.1° 48° - - -
3/29 1:40am 117 2 G 5 51° 67% - - 40° 52.1° 48° - - -
3/29 1:30am 140 2 G 5 50° 71% - - 41° 52.1° 48° - - -
3/29 1:20am 140 1 G 3 49° 74% - - 41° 52.1° 48° - - -
3/29 1:10am 105 1 G 3 50° 71% - - 41° 52.1° 48° - - -
3/29 1:00am 125 2 G 4 51° 70% - - 42° 52.1° 48° - - -
3/29 12:50am 135 2 G 4 51° 70% - - 42° 51.8° 48° - - -
3/29 12:40am 155 2 G 4 49° 76% - - 42° 51.2° 48° - - -
3/29 12:30am 114 2 G 4 49° 75% - - 42° 50.2° 48° - - -
3/29 12:20am 135 2 G 4 49° 78% - - 43° 50.2° 48° - - -
3/29 12:10am 104 2 G 4 49° 79% - - 42° 49.7° 48° - - -
3/29 12:00am 101 1 G 2 50° 77% - - 43° 73° 43.4° - - -
3/28 11:50pm 107 1 G 3 50° 77% - - 43° 73° 43.4° - - -
3/28 11:40pm 105 2 G 3 49° 80% - - 43° 73° 43.4° - - -
3/28 11:30pm 83 0 G 2 50° 80% - - 44° 73° 43.4° - - -
3/28 11:20pm 65 0 G 3 50° 82% - - 44° 73° 43.4° - - -
3/28 11:10pm 104 1 G 2 49° 84% - - 45° 73° 43.4° - - -
3/28 11:00pm 210 0 G 3 50° 82% - - 45° 73° 43.4° - - -
3/28 10:50pm 108 1 G 3 50° 87% - - 46° 73° 43.4° - - -
3/28 10:40pm 108 1 G 3 49° 89% - - 46° 73° 43.4° - - -
3/28 10:30pm 118 1 G 1 49° 89% - - 46° 73° 43.4° - - -
3/28 10:20pm 108 1 G 3 50° 87% - - 46° 73° 43.4° - - -
3/28 10:10pm 147 1 G 2 50° 88% - - 46° 73° 43.4° - - -
3/28 10:00pm 126 2 G 4 51° 86% - - 47° 73° 43.4° - - -
3/28 9:50pm 118 2 G 3 51° 87% - - 47° 73° 43.4° - - -
3/28 9:40pm 114 1 G 2 51° 87% - - 47° 73° 43.4° - - -
3/28 9:30pm 146 1 G 3 51° 87% - - 48° 73° 43.4° - - -
3/28 9:20pm 130 1 G 2 52° 87% - - 48° 73° 43.4° - - -
3/28 9:10pm 139 0 G 1 53° 86% - - 49° 73° 43.4° - - -
3/28 9:00pm 137 1 G 3 54° 85% - - 49° 73° 43.4° - - -
3/28 8:50pm 134 1 G 3 54° 84% - - 50° 73° 43.4° - - -
3/28 8:40pm 95 2 G 5 55° 83% - - 50° 73° 43.4° - - -
3/28 8:30pm 119 2 G 3 56° 82% - - 50° 73° 43.4° - - -
3/28 8:20pm 121 2 G 5 55° 80% - - 49° 73° 43.4° - - -
3/28 8:10pm 109 3 G 6 57° 77% - - 50° 73° 43.4° - - -
3/28 8:00pm 145 2 G 5 57° 75% - - 49° 73° 43.4° - - -
3/28 7:50pm 181 2 G 5 57° 73% - - 49° 73° 43.4° - - -
3/28 7:40pm 183 3 G 8 58° 67% - - 47° 73° 43.4° - - -
3/28 7:30pm 177 4 G 6 58° 58% - - 44° 73° 43.4° - - -
3/28 7:20pm 147 2 G 4 59° 52% - - 42° 73° 43.4° - - -
3/28 7:10pm 156 2 G 4 61° 47% - - 41° 73° 43.4° - - -
3/28 7:00pm 156 2 G 6 63° 43% - - 40° 73° 43.4° - - -
3/28 6:50pm 168 3 G 8 64° 41% - - 40° 73° 43.4° - - -
3/28 6:40pm 168 3 G 8 65° 42% - - 42° 73° 43.4° - - -
3/28 6:30pm 170 4 G 7 66° 41% - - 42° 73° 43.4° - - -
3/28 6:20pm 159 2 G 5 67° 41% - - 43° 73° 43.4° - - -
3/28 6:10pm 223 3 G 6 68° 39% - - 42° 73° 43.4° - - -
3/28 6:00pm 217 4 G 7 68° 39% - - 42° 73° 43.4° - - -
3/28 5:50pm 212 5 G 8 68° 40% - - 43° 73° 43.4° - - -
3/28 5:40pm 211 5 G 9 68° 41% - - 44° 73° 43.4° - - -
3/28 5:30pm 213 6 G 11 68° 42% - - 45° 73° 43.4° - - -
3/28 5:20pm 210 7 G 10 69° 42% - - 45° 73° 43.4° - - -
3/28 5:10pm 209 6 G 10 69° 43% - - 46° 73° 43.4° - - -
3/28 5:00pm 222 6 G 10 70° 43% - - 46° 73° 43.4° - - -
3/28 4:50pm 228 8 G 12 70° 42% - - 45° 73° 43.4° - - -
3/28 4:40pm 237 8 G 12 70° 43% - - 46° 73° 43.4° - - -
3/28 4:30pm 238 8 G 14 70° 43% - - 46° 73° 43.4° - - -
3/28 4:20pm 249 9 G 13 70° 42% - - 46° 73° 43.4° - - -
3/28 4:10pm 256 9 G 14 70° 43% - - 47° 73° 43.4° - - -
3/28 4:00pm 249 9 G 14 70° 45% - - 48° 73° 43.4° - - -
3/28 3:50pm 232 9 G 13 70° 47% - - 50° 73° 43.4° - - -
3/28 3:40pm 231 8 G 12 70° 48% - - 50° 73° 43.4° - - -
3/28 3:30pm 232 8 G 14 71° 46% - - 49° 73° 43.4° - - -
3/28 3:20pm 234 9 G 14 71° 46% - - 49° 73° 43.4° - - -
3/28 3:10pm 222 9 G 13 71° 45% - - 49° 73° 43.4° - - -
3/28 3:00pm 227 9 G 13 71° 45% - - 49° 73° 43.4° - - -
3/28 2:50pm 213 9 G 15 72° 45% - - 49° 73° 43.4° - - -
3/28 2:40pm 246 8 G 13 72° 44% - - 49° 73° 43.4° - - -
3/28 2:30pm 220 8 G 12 72° 42% - - 48° 73° 43.4° - - -
3/28 2:20pm 230 8 G 14 72° 41% - - 47° 73° 43.4° - - -
3/28 2:10pm 242 8 G 12 72° 42% - - 47° 73° 43.4° - - -
3/28 2:00pm 232 8 G 12 72° 39% - - 46° 73° 43.4° - - -
3/28 1:50pm 245 6 G 10 72° 39% - - 46° 72.3° 43.4° - - -
3/28 1:40pm 245 7 G 12 71° 39% - - 45° 72.3° 43.4° - - -
3/28 1:30pm 242 8 G 15 71° 41% - - 46° 72.2° 43.4° - - -
3/28 1:20pm 245 8 G 12 70° 41% - - 46° 72.2° 43.4° - - -
3/28 1:10pm 234 7 G 12 70° 43% - - 46° 72.2° 43.4° - - -
3/28 1:00pm 240 8 G 11 69° 46% - - 48° 72.2° 43.4° - - -
3/28 12:50pm 233 8 G 14 68° 47% - - 47° 72.2° 43.4° - - -
3/28 12:40pm 236 9 G 13 69° 46% - - 47° 72.2° 43.4° - - -
3/28 12:30pm 234 8 G 15 69° 43% - - 46° 72.2° 43.4° - - -
3/28 12:20pm 272 7 G 12 70° 36% - - 41° 72.2° 43.4° - - -
3/28 12:10pm 16 6 G 11 72° 22% - - 30° 72.2° 43.4° - - -
3/28 12:00pm 355 8 G 13 71° 22% - - 31° 71.8° 43.4° - - -
3/28 11:50am 23 6 G 14 71° 21% - - 29° 71.5° 43.4° - - -
3/28 11:40am 21 8 G 16 71° 22% - - 30° 71.3° 43.4° - - -
3/28 11:30am 342 10 G 18 70° 24% - - 31° 70.7° 43.4° - - -
3/28 11:20am 354 12 G 19 70° 24% - - 31° 70.2° 43.4° - - -
3/28 11:10am 3 10 G 18 69° 25% - - 32° 70.1° 43.4° - - -
3/28 11:00am 354 10 G 17 69° 26% - - 32° 69.6° 43.4° - - -
3/28 10:50am 5 10 G 15 68° 26% - - 32° 68.9° 43.4° - - -
3/28 10:40am 25 12 G 19 68° 26% - - 32° 68.6° 43.4° - - -
3/28 10:30am 33 11 G 17 68° 28% - - 33° 68.1° 43.4° - - -
3/28 10:20am 30 11 G 16 67° 28% - - 33° 67.8° 43.4° - - -
3/28 10:10am 37 10 G 17 66° 29% - - 34° 67.1° 43.4° - - -
3/28 10:00am 30 10 G 14 66° 31% - - 34° 66.4° 43.4° - - -
3/28 9:50am 28 8 G 15 65° 33% - - 35° 65.6° 43.4° - - -
3/28 9:40am 35 7 G 13 64° 34% - - 35° 64.9° 43.4° - - -
3/28 9:30am 36 9 G 15 64° 35% - - 36° 64.3° 43.4° - - -
3/28 9:20am 37 9 G 13 63° 40% - - 38° 63.6° 43.4° - - -
3/28 9:10am 42 8 G 12 62° 45% - - 40° 62.3° 43.4° - - -
3/28 9:00am 37 6 G 10 61° 49% - - 42° 61.6° 43.4° - - -
3/28 8:50am 30 5 G 8 60° 53% - - 43° 60.8° 43.4° - - -
3/28 8:40am 52 4 G 9 58° 60% - - 44° 59.4° 43.4° - - -
3/28 8:30am 41 4 G 6 56° 63% - - 43° 56.9° 43.4° - - -
3/28 8:20am 209 3 G 6 55° 67% - - 44° 55.4° 43.4° - - -
3/28 8:10am 216 1 G 4 53° 70% - - 43° 54.3° 43.4° - - -
3/28 8:00am 211 2 G 4 51° 78% - - 44° 54.3° 43.4° - - -
3/28 7:50am 84 2 G 5 50° 79% - - 44° 54.3° 43.4° - - -
3/28 7:40am 109 1 G 3 49° 79% - - 43° 54.3° 43.4° - - -
3/28 7:30am 337 1 G 4 47° 83% - - 42° 54.3° 43.4° - - -
3/28 7:20am 20 3 G 5 47° 82% - - 42° 54.3° 43.4° - - -
3/28 7:10am 45 7 G 10 48° 78% - - 42° 54.3° 43.4° - - -
3/28 7:00am 69 10 G 12 48° 80% - - 42° 54.3° 43.4° - - -
3/28 6:50am 75 10 G 13 47° 84% - - 42° 54.3° 43.4° - - -
3/28 6:40am 103 5 G 9 44° 95% - - 43° 54.3° 43.4° - - -
3/28 6:30am 114 1 G 2 44° 96% - - 43° 54.3° 43.4° - - -
3/28 6:20am 171 2 G 6 44° 96% - - 43° 54.3° 43.4° - - -
3/28 6:10am 113 2 G 6 44° 95% - - 43° 54.3° 43.4° - - -
3/28 6:00am 133 0 G 2 46° 94% - - 44° 54.3° 44.8° - - -